createdAt,value
2023-02-11T00:01:00.008Z,32.43
2023-02-11T00:06:02.669Z,33.63
2023-02-11T00:10:56.894Z,37.10
2023-02-11T00:15:49.306Z,34.20
2023-02-11T00:20:42.249Z,34.73
2023-02-11T00:25:34.678Z,33.60
2023-02-11T00:30:26.677Z,31.57
2023-02-11T00:35:18.810Z,32.60
2023-02-11T00:40:11.532Z,31.57
2023-02-11T00:45:03.939Z,35.43
2023-02-11T00:49:56.076Z,33.30
2023-02-11T00:54:48.015Z,29.87
2023-02-11T00:59:40.312Z,34.60
2023-02-11T01:04:32.348Z,36.67
2023-02-11T01:09:24.424Z,32.13
2023-02-11T01:14:16.698Z,29.60
2023-02-11T01:19:08.855Z,34.37
2023-02-11T01:24:00.821Z,30.73
2023-02-11T01:28:52.850Z,30.27
2023-02-11T01:33:45.489Z,30.77
2023-02-11T01:38:38.035Z,31.97
2023-02-11T01:43:33.696Z,29.37
2023-02-11T01:48:30.470Z,28.80
2023-02-11T01:53:41.538Z,31.90
2023-02-11T01:58:36.103Z,26.57
2023-02-11T02:03:30.925Z,26.13
2023-02-11T02:14:47.494Z,29.83
2023-02-11T02:19:58.008Z,28.70
2023-02-11T02:24:56.589Z,28.90
2023-02-11T02:29:48.518Z,30.13
2023-02-11T02:34:52.338Z,27.43
2023-02-11T02:39:47.049Z,28.77
2023-02-11T02:44:39.045Z,27.60
2023-02-11T02:49:31.060Z,28.07
2023-02-11T02:54:48.230Z,29.47
2023-02-11T03:00:01.334Z,27.27
2023-02-11T03:05:16.239Z,31.60
2023-02-11T03:10:24.937Z,28.60
2023-02-11T03:15:18.376Z,27.23
2023-02-11T03:20:13.105Z,26.47
2023-02-11T03:25:06.125Z,26.43
2023-02-11T03:30:22.046Z,29.00
2023-02-11T03:35:21.553Z,27.77
2023-02-11T03:40:22.301Z,28.50
2023-02-11T03:45:18.424Z,28.27
2023-02-11T03:50:13.798Z,27.40
2023-02-11T03:55:11.260Z,26.10
2023-02-11T04:00:04.241Z,30.40
2023-02-11T04:05:08.278Z,28.10
2023-02-11T04:10:01.488Z,29.53
2023-02-11T04:14:53.666Z,28.83
2023-02-11T04:19:45.681Z,30.20
2023-02-11T04:24:37.807Z,27.20
2023-02-11T04:29:29.874Z,28.80
2023-02-11T04:34:22.383Z,28.70
2023-02-11T04:39:14.312Z,27.77
2023-02-11T04:44:06.602Z,30.20
2023-02-11T04:48:58.509Z,27.67
2023-02-11T04:53:50.557Z,29.03
2023-02-11T04:58:42.505Z,29.83
2023-02-11T05:03:34.841Z,27.77
2023-02-11T05:08:26.976Z,27.40
2023-02-11T05:13:18.982Z,31.27
2023-02-11T05:18:10.995Z,28.00
2023-02-11T05:23:03.006Z,30.83
2023-02-11T05:27:55.077Z,33.47
2023-02-11T05:32:47.117Z,29.47
2023-02-11T05:37:39.234Z,29.70
2023-02-11T05:42:31.319Z,31.43
2023-02-11T05:47:23.532Z,28.37
2023-02-11T05:52:15.541Z,35.37
2023-02-11T05:57:07.470Z,35.40
2023-02-11T06:01:59.488Z,34.00
2023-02-11T06:06:51.714Z,36.13
2023-02-11T06:11:43.670Z,33.83
2023-02-11T06:16:35.771Z,31.63
2023-02-11T06:21:42.460Z,32.33
2023-02-11T06:26:35.232Z,31.40
2023-02-11T06:31:27.909Z,39.60
2023-02-11T06:36:21.542Z,35.80
2023-02-11T06:41:15.482Z,34.60
2023-02-11T06:46:07.990Z,29.10
2023-02-11T06:51:08.545Z,36.93
2023-02-11T06:56:09.501Z,32.23
2023-02-11T07:01:09.413Z,32.23
2023-02-11T07:06:01.540Z,31.60
2023-02-11T07:10:53.542Z,33.00
2023-02-11T07:15:46.826Z,35.97
2023-02-11T07:20:39.205Z,36.57
2023-02-11T07:25:31.240Z,33.90
2023-02-11T07:30:23.264Z,32.47
2023-02-11T07:35:15.449Z,34.97
2023-02-11T07:40:08.630Z,36.40
2023-02-11T07:45:00.672Z,35.23
2023-02-11T07:49:56.154Z,33.27
2023-02-11T07:54:49.281Z,31.80
2023-02-11T07:59:41.220Z,32.17
2023-02-11T08:04:33.200Z,30.67
2023-02-11T08:09:25.241Z,32.37
2023-02-11T08:14:17.440Z,32.27
2023-02-11T08:19:14.036Z,29.10
2023-02-11T08:24:06.627Z,30.70
2023-02-11T08:28:59.391Z,33.10
2023-02-11T08:33:52.199Z,34.03
2023-02-11T08:38:44.745Z,29.57
2023-02-11T08:43:41.738Z,30.07
2023-02-11T08:48:33.859Z,31.23
2023-02-11T08:53:25.970Z,29.27
2023-02-11T08:58:19.257Z,30.57
2023-02-11T09:03:12.673Z,29.40
2023-02-11T09:08:04.864Z,33.57
2023-02-11T09:12:58.208Z,27.57
2023-02-11T09:17:50.339Z,29.27
2023-02-11T09:22:42.300Z,25.47
2023-02-11T09:27:34.592Z,28.03
2023-02-11T09:32:26.556Z,29.87
2023-02-11T09:37:18.661Z,32.17
2023-02-11T09:42:20.659Z,31.03
2023-02-11T09:47:25.498Z,29.37
2023-02-11T09:52:41.626Z,28.77
2023-02-11T09:57:37.274Z,32.43
2023-02-11T10:03:07.470Z,32.03
2023-02-11T10:08:22.490Z,30.77
2023-02-11T10:13:48.970Z,30.27
2023-02-11T10:18:59.607Z,29.57
2023-02-11T10:23:57.310Z,26.67
2023-02-11T10:28:55.147Z,29.10
2023-02-11T10:34:03.617Z,29.50
2023-02-11T10:38:55.864Z,32.53
2023-02-11T10:43:48.129Z,27.03
2023-02-11T10:48:52.871Z,31.53
2023-02-11T10:53:46.630Z,27.73
2023-02-11T10:58:45.658Z,23.50
2023-02-11T11:03:47.811Z,25.70
2023-02-11T11:08:51.305Z,27.10
2023-02-11T11:14:03.894Z,26.23
2023-02-11T11:19:07.812Z,28.17
2023-02-11T11:24:01.848Z,25.40
2023-02-11T11:29:01.136Z,29.30
2023-02-11T11:33:56.619Z,31.67
2023-02-11T11:39:04.684Z,25.93
2023-02-11T11:44:15.343Z,25.97
2023-02-11T11:49:29.917Z,25.17
2023-02-11T11:54:24.457Z,26.93
2023-02-11T11:59:17.310Z,29.73
2023-02-11T12:04:30.370Z,24.60
2023-02-11T12:09:54.810Z,26.13
2023-02-11T12:15:15.984Z,25.37
2023-02-11T12:20:26.361Z,24.67
2023-02-11T12:25:28.488Z,25.23
2023-02-11T12:30:39.598Z,25.87
2023-02-11T12:35:51.698Z,23.47
2023-02-11T12:41:02.258Z,26.33
2023-02-11T12:46:29.161Z,26.60
2023-02-11T12:51:34.174Z,27.60
2023-02-11T12:56:31.156Z,24.13
2023-02-11T13:01:42.219Z,23.87
2023-02-11T13:06:46.699Z,24.43
2023-02-11T13:11:51.901Z,28.33
2023-02-11T13:16:50.040Z,23.97
2023-02-11T13:22:04.882Z,24.17
2023-02-11T13:27:34.613Z,27.37
2023-02-11T13:32:26.619Z,26.67
2023-02-11T13:37:31.536Z,23.13
2023-02-11T13:42:23.914Z,24.00
2023-02-11T13:47:33.916Z,23.30
2023-02-11T13:52:37.354Z,25.03
2023-02-11T13:57:35.592Z,26.53
2023-02-11T14:02:45.990Z,25.83
2023-02-11T14:07:57.736Z,29.63
2023-02-11T14:13:21.976Z,24.30
2023-02-11T14:18:40.478Z,22.93
2023-02-11T14:23:32.912Z,20.70
2023-02-11T14:28:32.950Z,22.47
2023-02-11T14:33:28.067Z,23.83
2023-02-11T14:38:45.119Z,26.40
2023-02-11T14:43:45.535Z,22.07
2023-02-11T14:48:39.499Z,21.93
2023-02-11T14:53:33.495Z,22.77
2023-02-11T14:58:29.638Z,22.93
2023-02-11T15:03:32.396Z,24.90
2023-02-11T15:08:24.551Z,23.30
2023-02-11T15:13:21.502Z,25.93
2023-02-11T15:18:23.097Z,24.53
2023-02-11T15:23:26.561Z,25.77
2023-02-11T15:28:28.935Z,21.57
2023-02-11T15:33:23.159Z,22.43
2023-02-11T15:38:15.526Z,23.73
2023-02-11T15:43:10.056Z,31.70
2023-02-11T15:48:22.684Z,24.53
2023-02-11T15:53:27.479Z,21.23
2023-02-11T15:58:21.602Z,22.20
2023-02-11T16:03:22.473Z,21.63
2023-02-11T16:08:29.402Z,21.73
2023-02-11T16:13:21.369Z,24.50
2023-02-11T16:18:37.386Z,24.00
2023-02-11T16:23:37.569Z,24.00
2023-02-11T16:28:29.660Z,20.83
2023-02-11T16:33:22.112Z,20.27
2023-02-11T16:38:14.278Z,21.80
2023-02-11T16:43:06.471Z,23.67
2023-02-11T16:47:58.593Z,25.50
2023-02-11T16:52:52.418Z,26.80
2023-02-11T16:57:44.625Z,26.90
2023-02-11T17:02:37.987Z,27.20
2023-02-11T17:07:30.848Z,26.80
2023-02-11T17:12:25.393Z,31.03
2023-02-11T17:17:17.760Z,26.70
2023-02-11T17:22:10.980Z,25.80
2023-02-11T17:27:03.132Z,32.03
2023-02-11T17:31:55.507Z,27.90
2023-02-11T17:36:48.471Z,26.93
2023-02-11T17:41:41.086Z,25.80
2023-02-11T17:46:35.419Z,32.00
2023-02-11T17:51:30.654Z,27.07
2023-02-11T17:56:22.612Z,31.70
2023-02-11T18:01:14.807Z,32.60
2023-02-11T18:06:07.601Z,33.67
2023-02-11T18:10:59.982Z,35.03
2023-02-11T18:15:52.448Z,34.77
2023-02-11T18:20:46.582Z,35.37
2023-02-11T18:25:42.201Z,34.40
2023-02-11T18:30:34.272Z,32.23
2023-02-11T18:35:26.348Z,37.50
2023-02-11T18:40:18.595Z,32.40
2023-02-11T18:45:14.962Z,35.97
2023-02-11T18:50:11.308Z,33.67
2023-02-11T18:55:04.198Z,37.93
2023-02-11T18:59:57.428Z,36.17
2023-02-11T19:04:49.449Z,31.23
2023-02-11T19:09:41.562Z,38.13
2023-02-11T19:14:34.859Z,32.73
2023-02-11T19:19:29.806Z,34.43
2023-02-11T19:24:23.083Z,36.13
2023-02-11T19:29:15.283Z,32.73
2023-02-11T19:34:10.268Z,29.33
2023-02-11T19:39:04.360Z,33.53
2023-02-11T19:43:56.775Z,31.80
2023-02-11T19:48:49.420Z,29.50
2023-02-11T19:53:42.439Z,28.83
2023-02-11T19:58:36.199Z,28.93
2023-02-11T20:03:28.143Z,27.93
2023-02-11T20:08:20.181Z,27.53
2023-02-11T20:13:12.191Z,28.63
2023-02-11T20:18:04.217Z,29.87
2023-02-11T20:22:57.591Z,28.90
2023-02-11T20:27:49.724Z,29.77
2023-02-11T20:32:41.822Z,27.30
2023-02-11T20:37:34.234Z,25.27
2023-02-11T20:42:26.975Z,27.43
2023-02-11T20:47:19.010Z,26.73
2023-02-11T20:52:11.095Z,24.27
2023-02-11T20:57:03.138Z,25.30
2023-02-11T21:01:57.128Z,24.23
2023-02-11T21:06:52.312Z,25.73
2023-02-11T21:11:44.332Z,27.63
2023-02-11T21:16:36.429Z,29.07
2023-02-11T21:21:28.984Z,29.43
2023-02-11T21:26:21.063Z,29.03
2023-02-11T21:31:24.200Z,27.47
2023-02-11T21:36:16.652Z,30.60
2023-02-11T21:41:09.196Z,25.73
2023-02-11T21:46:06.394Z,28.30
2023-02-11T21:50:58.480Z,30.67
2023-02-11T21:55:51.379Z,28.03
2023-02-11T22:00:43.434Z,27.63
2023-02-11T22:05:35.375Z,31.33
2023-02-11T22:10:27.431Z,28.27
2023-02-11T22:15:19.725Z,29.87
2023-02-11T22:20:12.237Z,29.60
2023-02-11T22:25:04.445Z,29.70
2023-02-11T22:29:56.419Z,32.10
2023-02-11T22:34:48.418Z,28.77
2023-02-11T22:39:42.028Z,30.10
2023-02-11T22:44:34.096Z,31.70
2023-02-11T22:49:26.363Z,30.57
2023-02-11T22:54:19.353Z,31.90
2023-02-11T22:59:13.808Z,29.97
2023-02-11T23:04:08.066Z,29.47
2023-02-11T23:09:00.231Z,30.43
2023-02-11T23:13:53.337Z,30.97
2023-02-11T23:18:47.162Z,32.00
2023-02-11T23:23:39.115Z,30.93
2023-02-11T23:28:31.594Z,34.10
2023-02-11T23:33:23.880Z,35.73
2023-02-11T23:38:15.883Z,33.50
2023-02-11T23:43:07.896Z,34.73
2023-02-11T23:47:59.856Z,32.50
2023-02-11T23:52:51.791Z,35.70
2023-02-11T23:57:43.791Z,38.17
